Time;durP1;ratioP1;P1;durP2;ratioP2;P2;SDS_P1;SDS_P2;PMS_P1;PMS_P2;Temp;Humidity;BMP_temperature;BMP_pressure;BME280_temperature;BME280_humidity;BME280_pressure;Samples;Min_cycle;Max_cycle;Signal;HPM_P1;HPM_P2
2022/07/31 00:04:49;;;;;;;17.20;12.95;;;;;;;17.01;100.00;98391.81;4252814;82;21038;-84
2022/07/31 00:10:51;;;;;;;25.27;12.53;;;;;;;16.99;100.00;98401.77;4257319;82;21515;-84
2022/07/31 00:16:52;;;;;;;24.37;12.37;;;;;;;16.97;100.00;98404.17;4257376;82;21014;-83
2022/07/31 00:22:54;;;;;;;19.50;12.55;;;;;;;16.97;100.00;98399.43;4275297;83;20999;-84
2022/07/31 00:28:55;;;;;;;17.87;13.45;;;;;;;16.95;100.00;98395.52;4260183;82;21359;-85
2022/07/31 00:35:04;;;;;;;22.52;12.15;;;;;;;16.87;100.00;98394.92;4257582;81;21078;-84
2022/07/31 00:41:05;;;;;;;17.55;10.93;;;;;;;16.88;100.00;98386.78;4252244;82;21410;-85
2022/07/31 00:47:07;;;;;;;19.15;10.82;;;;;;;16.87;100.00;98387.22;4258235;82;21015;-85
2022/07/31 00:53:09;;;;;;;13.45;9.53;;;;;;;16.88;100.00;98388.80;4255971;82;20990;-85
2022/07/31 00:59:12;;;;;;;13.78;11.68;;;;;;;16.86;100.00;98390.61;4250635;82;21062;-84
2022/07/31 01:05:17;;;;;;;25.57;13.43;;;;;;;16.83;100.00;98394.83;4265612;82;20979;-84
2022/07/31 01:11:30;;;;;;;22.70;13.88;;;;;;;16.80;100.00;98394.31;4286543;80;21024;-85
2022/07/31 01:17:58;;;;;;;16.85;11.43;;;;;;;16.77;100.00;98393.80;4308432;80;21073;-89
2022/07/31 01:24:33;;;;;;;10.85;8.90;;;;;;;16.76;100.00;98399.13;4308004;79;21047;-86
2022/07/31 01:30:54;;;;;;;12.50;10.10;;;;;;;16.79;100.00;98392.14;4287977;80;21003;-85
2022/07/31 01:37:22;;;;;;;18.95;12.82;;;;;;;16.79;100.00;98378.32;4328776;79;21017;-85
2022/07/31 01:43:32;;;;;;;14.90;13.30;;;;;;;16.81;100.00;98383.42;4341629;80;21020;-86
2022/07/31 01:49:36;;;;;;;18.00;12.37;;;;;;;16.78;100.00;98384.28;4245706;80;20966;-85
2022/07/31 01:55:41;;;;;;;16.30;11.15;;;;;;;16.78;100.00;98374.02;4277096;80;21045;-86
2022/07/31 02:02:03;;;;;;;15.25;11.28;;;;;;;16.78;100.00;98368.48;4236337;82;21041;-86
2022/07/31 02:08:06;;;;;;;13.83;7.78;;;;;;;16.78;100.00;98358.81;4263679;82;21030;-85
2022/07/31 02:14:12;;;;;;;13.75;7.62;;;;;;;16.79;100.00;98348.52;4297122;80;21978;-85
2022/07/31 02:20:15;;;;;;;12.10;9.03;;;;;;;16.77;100.00;98351.70;4294051;81;21053;-85
2022/07/31 02:26:16;;;;;;;17.37;8.78;;;;;;;16.79;100.00;98346.53;4297358;81;21706;-85
2022/07/31 02:32:21;;;;;;;13.38;10.10;;;;;;;16.79;100.00;98342.39;4294325;81;21010;-85
2022/07/31 02:38:26;;;;;;;13.80;7.30;;;;;;;16.78;100.00;98339.47;4295757;81;21113;-84
2022/07/31 02:44:38;;;;;;;15.93;8.97;;;;;;;16.76;100.00;98338.33;4287527;81;21613;-85
2022/07/31 02:50:40;;;;;;;12.60;6.22;;;;;;;16.76;100.00;98336.94;4276133;81;42943;-85
2022/07/31 02:56:48;;;;;;;20.90;8.83;;;;;;;16.76;100.00;98328.05;4287167;81;21006;-84
2022/07/31 03:02:50;;;;;;;20.10;7.72;;;;;;;16.77;100.00;98326.08;4281571;81;21031;-84
2022/07/31 03:09:21;;;;;;;10.48;4.72;;;;;;;16.73;100.00;98332.28;4285069;81;21034;-85
2022/07/31 03:15:34;;;;;;;10.93;5.40;;;;;;;16.73;100.00;98331.69;4287740;83;21031;-85
2022/07/31 03:21:36;;;;;;;10.93;6.22;;;;;;;16.71;100.00;98329.19;4283812;81;22060;-85
2022/07/31 03:27:39;;;;;;;7.17;3.90;;;;;;;16.66;100.00;98321.41;4277184;81;21332;-85
2022/07/31 03:33:41;;;;;;;4.65;2.55;;;;;;;16.61;100.00;98321.92;4282735;81;21075;-85
2022/07/31 03:39:43;;;;;;;3.58;2.58;;;;;;;16.62;100.00;98309.05;4268002;81;21057;-86
2022/07/31 03:45:47;;;;;;;6.80;2.00;;;;;;;16.58;100.00;98310.34;4265496;81;21927;-85
2022/07/31 03:51:50;;;;;;;5.80;2.40;;;;;;;16.59;100.00;98298.08;4272749;81;21012;-85
2022/07/31 03:57:56;;;;;;;4.83;3.15;;;;;;;16.61;100.00;98306.72;4265179;81;21885;-84
2022/07/31 04:04:07;;;;;;;8.18;2.87;;;;;;;16.63;100.00;98313.98;4295021;81;20982;-84
2022/07/31 04:10:16;;;;;;;6.08;1.90;;;;;;;16.61;100.00;98321.32;4277326;81;21591;-86
2022/07/31 04:16:18;;;;;;;6.65;1.98;;;;;;;16.63;100.00;98328.55;4243946;82;21116;-85
2022/07/31 04:22:19;;;;;;;3.62;1.98;;;;;;;16.66;100.00;98323.55;4244315;82;21096;-85
2022/07/31 04:28:22;;;;;;;2.95;1.65;;;;;;;16.68;100.00;98340.48;4234179;82;21405;-85
2022/07/31 04:34:24;;;;;;;3.42;1.40;;;;;;;16.69;100.00;98337.13;4251509;82;21104;-83
2022/07/31 04:40:26;;;;;;;2.62;1.55;;;;;;;16.68;100.00;98344.63;4272506;82;21659;-84
2022/07/31 04:46:28;;;;;;;4.15;1.10;;;;;;;16.65;100.00;98362.66;4250539;82;21558;-85
2022/07/31 04:52:34;;;;;;;3.15;1.10;;;;;;;16.56;100.00;98363.27;4250541;82;21044;-84
2022/07/31 04:58:43;;;;;;;1.02;0.93;;;;;;;16.48;100.00;98368.78;4334843;80;21095;-85
2022/07/31 05:04:54;;;;;;;1.40;0.98;;;;;;;16.47;100.00;98371.98;4321786;80;21086;-83
2022/07/31 05:17:21;;;;;;;2.17;1.50;;;;;;;16.44;100.00;98393.52;4241750;82;21027;-84
2022/07/31 05:23:38;;;;;;;0.65;0.65;;;;;;;16.40;100.00;98394.97;4217900;82;21023;-85
2022/07/31 05:29:53;;;;;;;3.85;0.45;;;;;;;16.36;100.00;98405.92;4251964;82;21125;-86
2022/07/31 05:35:55;;;;;;;0.98;0.50;;;;;;;16.37;100.00;98419.90;4248945;82;21003;-87
2022/07/31 05:42:06;;;;;;;0.70;0.70;;;;;;;16.33;100.00;98411.71;4265821;82;21969;-85
2022/07/31 05:48:15;;;;;;;2.45;0.70;;;;;;;16.26;100.00;98417.96;4252775;82;21850;-85
2022/07/31 05:54:16;;;;;;;4.30;0.90;;;;;;;16.22;100.00;98422.80;4255835;82;21003;-86
2022/07/31 06:00:38;;;;;;;0.85;0.47;;;;;;;16.19;100.00;98422.27;4256076;82;21931;-85
2022/07/31 06:06:39;;;;;;;2.40;0.70;;;;;;;16.18;100.00;98424.83;4247520;82;21090;-86
2022/07/31 06:12:40;;;;;;;4.92;0.80;;;;;;;16.18;100.00;98431.73;4243666;80;20982;-85
2022/07/31 06:18:42;;;;;;;1.17;0.90;;;;;;;16.22;100.00;98434.62;4246864;81;21132;-85
2022/07/31 06:24:44;;;;;;;2.60;0.80;;;;;;;16.20;100.00;98430.72;4248735;82;21868;-85
2022/07/31 06:30:45;;;;;;;0.90;0.80;;;;;;;16.22;100.00;98431.08;4246677;82;21590;-84
2022/07/31 06:36:47;;;;;;;4.42;1.40;;;;;;;16.23;100.00;98427.89;4244118;82;20963;-86
2022/07/31 06:42:50;;;;;;;4.42;0.90;;;;;;;16.24;100.00;98429.44;4254092;82;21468;-85
2022/07/31 06:48:53;;;;;;;3.80;1.00;;;;;;;16.25;100.00;98437.91;4270971;82;21080;-84
2022/07/31 06:54:56;;;;;;;2.20;1.45;;;;;;;16.29;100.00;98439.20;4246224;82;21919;-88
2022/07/31 07:00:57;;;;;;;0.50;0.45;;;;;;;16.31;100.00;98453.37;4253253;82;21076;-85
2022/07/31 07:06:58;;;;;;;2.40;0.60;;;;;;;16.30;100.00;98449.06;4253047;82;21825;-85
2022/07/31 07:13:02;;;;;;;1.55;0.85;;;;;;;16.25;100.00;98454.48;4264209;81;21041;-85
2022/07/31 07:19:05;;;;;;;1.82;1.10;;;;;;;16.15;100.00;98456.84;4280731;81;21125;-85
2022/07/31 07:25:11;;;;;;;2.55;1.35;;;;;;;16.09;100.00;98466.04;4264560;81;21000;-85
2022/07/31 07:31:13;;;;;;;3.02;1.42;;;;;;;16.04;100.00;98465.14;4280349;81;21129;-84
2022/07/31 07:37:15;;;;;;;1.65;1.55;;;;;;;16.02;100.00;98470.33;4287425;81;21030;-85
2022/07/31 07:43:17;;;;;;;2.25;1.92;;;;;;;15.95;100.00;98479.52;4273878;81;21139;-83
2022/07/31 07:49:20;;;;;;;3.55;1.82;;;;;;;15.93;100.00;98478.39;4276394;81;21037;-85
2022/07/31 07:55:38;;;;;;;3.42;1.90;;;;;;;15.93;100.00;98486.67;4282535;81;20981;-85
2022/07/31 08:02:09;;;;;;;1.67;1.57;;;;;;;15.94;100.00;98497.89;4285749;81;21023;-85
2022/07/31 08:08:29;;;;;;;2.58;1.50;;;;;;;15.90;100.00;98499.91;4280839;81;21831;-85
2022/07/31 08:14:39;;;;;;;4.15;1.40;;;;;;;15.84;100.00;98506.53;4224934;81;21056;-85
2022/07/31 08:20:53;;;;;;;2.37;1.22;;;;;;;15.79;100.00;98511.15;4246536;82;21080;-86
2022/07/31 08:33:25;;;;;;;3.37;1.10;;;;;;;15.77;100.00;98520.44;4254277;82;21006;-86
2022/07/31 08:39:29;;;;;;;1.62;1.20;;;;;;;15.76;100.00;98521.65;4238793;82;22007;-86
2022/07/31 08:45:41;;;;;;;1.42;1.10;;;;;;;15.75;100.00;98533.90;4251026;82;22239;-84
2022/07/31 08:51:45;;;;;;;2.90;0.98;;;;;;;15.73;100.00;98535.50;4253361;82;21015;-85
2022/07/31 08:58:06;;;;;;;1.87;1.10;;;;;;;15.73;100.00;98531.36;4245383;82;21034;-85
2022/07/31 09:04:08;;;;;;;1.25;1.05;;;;;;;15.68;100.00;98534.00;4254730;82;21433;-84
2022/07/31 09:10:26;;;;;;;2.47;0.98;;;;;;;15.66;100.00;98534.42;4255569;82;20991;-85
2022/07/31 09:16:29;;;;;;;2.67;1.20;;;;;;;15.70;100.00;98532.99;4257200;80;21200;-84
2022/07/31 09:22:30;;;;;;;3.80;1.77;;;;;;;15.73;100.00;98546.54;4253227;82;21031;-84
2022/07/31 09:28:37;;;;;;;1.80;1.32;;;;;;;15.75;100.00;98546.91;4244665;82;21028;-85
2022/07/31 09:34:41;;;;;;;3.22;1.70;;;;;;;15.74;100.00;98548.88;4234745;82;21054;-84
2022/07/31 09:41:27;;;;;;;2.02;1.60;;;;;;;15.74;100.00;98550.26;4245784;82;21009;-84
2022/07/31 09:47:46;;;;;;;1.65;1.50;;;;;;;15.74;100.00;98550.26;4243774;82;21020;-84
2022/07/31 09:53:56;;;;;;;;;;;;;;;15.74;100.00;98558.53;4238442;82;21030;-86
2022/07/31 10:00:20;;;;;;;2.10;1.90;;;;;;;15.75;100.00;98561.49;4202686;82;100801;-85
2022/07/31 10:06:36;;;;;;;4.10;1.85;;;;;;;15.74;100.00;98560.53;4135071;84;21013;-85
2022/07/31 10:13:02;;;;;;;2.50;2.08;;;;;;;15.74;100.00;98563.30;4145088;83;21044;-85
2022/07/31 10:19:17;;;;;;;2.70;2.02;;;;;;;15.78;100.00;98568.94;4143408;84;21096;-85
2022/07/31 10:25:30;;;;;;;3.27;2.35;;;;;;;15.78;100.00;98573.66;4153499;84;21033;-85
2022/07/31 10:31:39;;;;;;;2.60;2.05;;;;;;;15.78;100.00;98579.97;4145860;84;21057;-85
2022/07/31 10:38:14;;;;;;;3.45;2.47;;;;;;;15.78;100.00;98578.59;4191366;84;21022;-85
2022/07/31 10:44:42;;;;;;;3.72;2.50;;;;;;;15.78;100.00;98577.21;4151557;85;21098;-84
2022/07/31 10:50:46;;;;;;;2.30;2.10;;;;;;;15.87;100.00;98589.88;4125193;85;21050;-84
2022/07/31 10:57:07;;;;;;;2.15;1.95;;;;;;;15.94;100.00;98593.12;4122821;85;21033;-85
2022/07/31 11:03:20;;;;;;;2.30;1.80;;;;;;;15.95;100.00;98600.98;4161602;84;21019;-85
2022/07/31 11:09:41;;;;;;;2.25;1.77;;;;;;;15.92;100.00;98604.58;4138200;84;21409;-84
2022/07/31 11:16:15;;;;;;;2.98;1.80;;;;;;;15.87;100.00;98613.92;4145941;84;21016;-85
2022/07/31 11:22:26;;;;;;;2.08;1.50;;;;;;;15.89;100.00;98604.63;4106897;85;21528;-84
2022/07/31 11:28:52;;;;;;;3.45;1.95;;;;;;;15.96;100.00;98613.57;4121723;85;21096;-85
2022/07/31 11:34:55;;;;;;;1.95;1.30;;;;;;;16.08;100.00;98617.73;4121282;85;21038;-85
2022/07/31 11:40:57;;;;;;;1.85;1.57;;;;;;;16.13;100.00;98608.34;4121601;85;21672;-85
2022/07/31 11:47:04;;;;;;;2.58;1.10;;;;;;;16.09;100.00;98604.88;4141317;83;22028;-84
2022/07/31 11:53:05;;;;;;;;;;;;;;;16.10;100.00;98611.19;4143676;84;21009;-85
2022/07/31 11:59:14;;;;;;;0.78;0.78;;;;;;;16.10;100.00;98613.33;4172567;85;20124;-85
2022/07/31 12:05:16;;;;;;;0.85;0.80;;;;;;;16.11;100.00;98614.13;4106953;85;21490;-84
2022/07/31 12:11:19;;;;;;;2.62;1.17;;;;;;;16.10;100.00;98621.62;4125406;85;21398;-84
2022/07/31 12:17:47;;;;;;;2.42;0.75;;;;;;;16.15;100.00;98618.97;4065995;85;21058;-85
2022/07/31 12:23:52;;;;;;;1.27;0.68;;;;;;;16.21;100.00;98620.83;4118475;85;21045;-85
2022/07/31 12:29:53;;;;;;;0.72;0.60;;;;;;;16.25;100.00;98628.47;4116618;85;21090;-84
2022/07/31 12:35:55;;;;;;;1.62;0.78;;;;;;;16.26;100.00;98626.47;4120828;85;21747;-84
2022/07/31 12:42:32;;;;;;;0.95;0.80;;;;;;;16.28;100.00;98632.36;4126617;85;21029;-85
2022/07/31 14:02:12;;;;;;;1.45;1.27;;;;;;;15.45;100.00;98635.45;4565095;76;23940;-85
2022/07/31 14:08:24;;;;;;;3.02;1.50;;;;;;;15.42;100.00;98641.02;4173797;84;24681;-85
2022/07/31 14:14:35;;;;;;;3.95;3.17;;;;;;;15.48;100.00;98643.48;4181721;84;20967;-85
2022/07/31 14:20:36;;;;;;;4.15;3.60;;;;;;;15.57;100.00;98646.50;4166571;84;21547;-84
2022/07/31 14:26:38;;;;;;;4.35;3.95;;;;;;;15.62;100.00;98643.28;4169116;84;21130;-85
2022/07/31 14:32:55;;;;;;;5.97;4.65;;;;;;;15.65;100.00;98645.20;4156613;84;21024;-85
2022/07/31 14:38:57;;;;;;;5.65;5.08;;;;;;;15.72;100.00;98649.84;4138862;84;21083;-84
2022/07/31 14:45:11;;;;;;;6.75;6.08;;;;;;;15.78;100.00;98659.22;4161992;84;21038;-85
2022/07/31 14:51:17;;;;;;;7.50;6.28;;;;;;;15.82;100.00;98659.95;4133244;84;21083;-85
2022/07/31 14:57:20;;;;;;;9.08;6.72;;;;;;;15.86;100.00;98657.91;4156114;84;21421;-85
2022/07/31 15:03:21;;;;;;;9.63;6.47;;;;;;;15.92;100.00;98667.28;4188893;84;21711;-84
2022/07/31 15:09:30;;;;;;;5.85;5.35;;;;;;;15.94;100.00;98671.20;4185858;84;21011;-85
2022/07/31 15:15:33;;;;;;;7.53;5.28;;;;;;;15.94;100.00;98673.96;4174363;84;21595;-85
2022/07/31 15:21:34;;;;;;;10.28;5.97;;;;;;;15.93;100.00;98671.62;4197345;84;20987;-85
2022/07/31 15:27:44;;;;;;;5.97;5.12;;;;;;;15.94;100.00;98675.93;4227379;84;20999;-85
2022/07/31 15:33:54;;;;;;;8.68;5.62;;;;;;;15.95;100.00;98678.27;4193354;84;21020;-85
2022/07/31 15:39:56;;;;;;;6.65;5.80;;;;;;;15.96;100.00;98678.44;4220033;84;21032;-86
2022/07/31 15:46:02;;;;;;;6.05;5.45;;;;;;;15.98;100.00;98677.44;4117677;84;20998;-84
2022/07/31 15:52:04;;;;;;;7.60;5.20;;;;;;;15.99;100.00;98685.13;4217590;84;21662;-85
2022/07/31 15:58:17;;;;;;;5.95;5.35;;;;;;;16.02;100.00;98689.19;4201718;84;21886;-84
2022/07/31 16:04:19;;;;;;;4.83;4.33;;;;;;;16.03;100.00;98686.62;4162591;84;21020;-84
2022/07/31 16:10:27;;;;;;;5.70;4.87;;;;;;;16.04;100.00;98686.01;4055672;86;21043;-84
2022/07/31 16:16:33;;;;;;;17.85;5.40;;;;;;;16.06;100.00;98683.63;3973647;88;21136;-84
2022/07/31 16:22:36;;;;;;;6.00;5.17;;;;;;;16.03;100.00;98692.16;4001738;87;21038;-84
2022/07/31 16:28:41;;;;;;;5.53;4.72;;;;;;;16.01;100.00;98686.84;4064615;86;21682;-85
2022/07/31 16:34:43;;;;;;;8.18;5.03;;;;;;;15.99;100.00;98684.50;4054578;86;21006;-86
2022/07/31 16:40:44;;;;;;;6.97;4.80;;;;;;;15.97;100.00;98685.55;4036229;87;21023;-85
2022/07/31 16:47:13;;;;;;;7.35;5.20;;;;;;;15.97;100.00;98702.11;4045248;87;21054;-85
2022/07/31 16:53:18;;;;;;;5.85;5.25;;;;;;;15.96;100.00;98695.63;4031438;87;21038;-84
2022/07/31 16:59:19;;;;;;;9.75;5.08;;;;;;;15.96;100.00;98700.53;4030990;87;21481;-85
2022/07/31 17:05:21;;;;;;;7.65;4.90;;;;;;;15.95;100.00;98710.02;4093513;87;21898;-85
2022/07/31 17:11:26;;;;;;;8.80;4.30;;;;;;;15.94;100.00;98711.23;4103765;86;21022;-85
2022/07/31 17:17:28;;;;;;;5.42;4.75;;;;;;;15.93;100.00;98715.16;4110597;87;21025;-85
2022/07/31 17:23:30;;;;;;;8.45;5.17;;;;;;;15.92;100.00;98714.20;4112440;86;21102;-85
2022/07/31 17:29:38;;;;;;;9.95;4.67;;;;;;;15.90;100.00;98716.59;4118564;86;21062;-84
2022/07/31 17:35:40;;;;;;;9.65;5.35;;;;;;;15.89;100.00;98714.45;4085657;86;21059;-85
2022/07/31 17:41:41;;;;;;;9.55;4.10;;;;;;;15.89;100.00;98719.97;4110995;86;21077;-86
2022/07/31 17:47:52;;;;;;;6.87;4.28;;;;;;;15.91;100.00;98722.31;4097065;86;21046;-85
2022/07/31 17:54:03;;;;;;;8.03;5.87;;;;;;;15.93;100.00;98728.20;4100421;86;21015;-84
2022/07/31 18:00:08;;;;;;;6.50;5.87;;;;;;;15.96;100.00;98726.75;4118056;85;21123;-86
2022/07/31 18:06:24;;;;;;;7.15;5.60;;;;;;;15.94;100.00;98720.09;4081963;86;21038;-85
2022/07/31 18:12:26;;;;;;;7.62;6.37;;;;;;;15.98;100.00;98727.72;4090208;86;21146;-85
2022/07/31 18:18:27;;;;;;;7.70;6.90;;;;;;;16.00;100.00;98724.73;4091136;86;21014;-85
2022/07/31 18:24:34;;;;;;;8.73;7.83;;;;;;;16.01;100.00;98727.67;4085417;86;22057;-85
2022/07/31 18:30:39;;;;;;;11.25;7.60;;;;;;;15.99;100.00;98734.20;4081708;86;21022;-85
2022/07/31 18:36:39;;;;;;;9.03;7.00;;;;;;;16.01;100.00;98734.58;4119060;86;21046;-85
2022/07/31 18:42:46;;;;;;;8.45;6.65;;;;;;;16.05;100.00;98735.32;4071930;86;21052;-85
2022/07/31 18:48:48;;;;;;;11.05;6.87;;;;;;;16.08;100.00;98733.69;4120145;86;21536;-85
2022/07/31 18:54:50;;;;;;;11.53;7.12;;;;;;;16.09;100.00;98731.89;4081231;86;20991;-85
2022/07/31 19:00:52;;;;;;;11.12;6.83;;;;;;;16.12;100.00;98735.78;3910217;86;10000148;-85
2022/07/31 19:07:01;;;;;;;7.17;6.25;;;;;;;16.15;100.00;98737.71;3972585;88;21089;-85
2022/07/31 19:13:03;;;;;;;9.03;6.72;;;;;;;16.10;100.00;98750.02;4015139;87;21129;-86
2022/07/31 19:19:16;;;;;;;11.20;6.20;;;;;;;16.13;100.00;98762.98;4012521;87;21100;-85
2022/07/31 19:25:24;;;;;;;11.90;6.97;;;;;;;16.13;100.00;98758.08;4006395;87;21722;-85
2022/07/31 19:31:28;;;;;;;7.83;6.20;;;;;;;16.13;100.00;98753.31;4020245;87;21052;-84
2022/07/31 19:37:37;;;;;;;8.13;7.03;;;;;;;16.13;100.00;98764.98;3941340;89;20993;-85
2022/07/31 19:43:39;;;;;;;11.73;7.12;;;;;;;16.15;100.00;98764.73;3957203;88;21047;-84
2022/07/31 19:49:43;;;;;;;12.70;6.75;;;;;;;16.16;100.00;98759.38;4017571;87;21027;-84
2022/07/31 19:55:47;;;;;;;8.03;6.83;;;;;;;16.17;100.00;98765.70;4008957;87;21099;-84
2022/07/31 20:01:48;;;;;;;7.50;6.80;;;;;;;16.20;100.00;98762.89;4069926;85;21047;-85
2022/07/31 20:08:01;;;;;;;11.95;7.03;;;;;;;16.21;100.00;98760.30;4094488;85;21363;-85
2022/07/31 20:14:02;;;;;;;11.00;6.87;;;;;;;16.20;100.00;98762.89;3988145;87;21115;-85
2022/07/31 20:20:11;;;;;;;8.38;6.97;;;;;;;16.19;100.00;98761.92;4153935;85;21013;-85
2022/07/31 20:26:14;;;;;;;8.35;7.45;;;;;;;16.18;100.00;98759.75;4107009;85;21518;-84
2022/07/31 20:32:20;;;;;;;8.38;6.83;;;;;;;16.20;100.00;98764.86;4087507;85;21061;-85
2022/07/31 20:38:25;;;;;;;9.90;6.43;;;;;;;16.20;100.00;98763.48;4089040;85;21057;-85
2022/07/31 20:44:32;;;;;;;9.78;6.62;;;;;;;16.21;100.00;98765.06;4077591;85;22462;-84
2022/07/31 20:50:35;;;;;;;8.40;6.65;;;;;;;16.22;100.00;98767.41;4098622;85;20993;-84
2022/07/31 20:56:36;;;;;;;11.97;6.47;;;;;;;16.23;100.00;98770.92;4010870;87;21046;-85
2022/07/31 21:02:37;;;;;;;10.85;6.70;;;;;;;16.26;100.00;98766.73;4101743;85;22056;-84
2022/07/31 21:08:40;;;;;;;10.18;6.25;;;;;;;16.29;100.00;98768.66;4101749;85;21094;-84
2022/07/31 21:14:42;;;;;;;11.12;6.90;;;;;;;16.29;100.00;98764.52;4075479;85;21494;-84
2022/07/31 21:20:47;;;;;;;12.90;6.83;;;;;;;16.28;100.00;98767.70;4112604;85;21577;-84
2022/07/31 21:27:04;;;;;;;10.60;7.00;;;;;;;16.25;100.00;98767.16;4080717;85;21036;-85
2022/07/31 21:33:14;;;;;;;12.05;6.45;;;;;;;16.26;100.00;98774.23;4092321;85;21525;-84
2022/07/31 21:39:16;;;;;;;15.10;6.53;;;;;;;16.27;100.00;98773.05;4094665;84;21033;-84
2022/07/31 21:45:19;;;;;;;13.00;6.72;;;;;;;16.25;100.00;98771.30;4099268;85;21072;-84
2022/07/31 21:51:35;;;;;;;11.63;6.80;;;;;;;16.26;100.00;98777.79;4102644;85;20991;-84
2022/07/31 21:57:38;;;;;;;11.00;6.85;;;;;;;16.26;100.00;98785.28;4066409;85;20985;-85
2022/07/31 22:03:41;;;;;;;10.00;6.78;;;;;;;16.24;100.00;98778.80;4095227;85;21071;-84
2022/07/31 22:09:42;;;;;;;9.30;6.70;;;;;;;16.23;100.00;98778.62;4118360;85;21039;-84
2022/07/31 22:15:58;;;;;;;9.10;6.83;;;;;;;16.22;100.00;98776.28;4121788;85;21927;-85
2022/07/31 22:22:01;;;;;;;10.78;6.70;;;;;;;16.20;100.00;98778.67;4093333;85;21032;-84
2022/07/31 22:28:03;;;;;;;8.68;6.37;;;;;;;16.17;100.00;98776.16;4109209;85;21918;-84
2022/07/31 22:34:04;;;;;;;11.75;6.05;;;;;;;16.16;100.00;98774.57;4105419;85;21073;-85
2022/07/31 22:40:08;;;;;;;8.05;6.42;;;;;;;16.15;100.00;98786.83;4119691;85;21064;-85
2022/07/31 22:46:13;;;;;;;7.55;5.83;;;;;;;16.15;100.00;98784.06;4005703;87;21143;-85
2022/07/31 22:52:21;;;;;;;10.53;6.50;;;;;;;16.15;100.00;98790.17;4003130;88;21777;-85
2022/07/31 22:58:26;;;;;;;10.55;6.53;;;;;;;16.14;100.00;98795.53;4095696;85;21060;-85
2022/07/31 23:04:33;;;;;;;12.50;6.50;;;;;;;16.13;100.00;98797.50;3948838;87;21564;-84
2022/07/31 23:10:40;;;;;;;9.00;7.05;;;;;;;16.11;100.00;98791.63;3951544;87;21048;-85
2022/07/31 23:16:41;;;;;;;12.33;6.70;;;;;;;16.10;100.00;98790.05;3958833;88;21096;-85
2022/07/31 23:22:42;;;;;;;6.70;6.05;;;;;;;16.08;100.00;98793.05;3949447;88;21057;-85
2022/07/31 23:28:44;;;;;;;12.15;6.37;;;;;;;16.03;100.00;98793.52;3951249;87;21128;-85
2022/07/31 23:34:45;;;;;;;7.33;6.60;;;;;;;15.97;100.00;98791.04;3962713;87;21072;-84
2022/07/31 23:40:47;;;;;;;12.28;7.47;;;;;;;15.91;100.00;98787.94;3936790;88;21093;-84
2022/07/31 23:46:48;;;;;;;10.13;7.00;;;;;;;15.90;100.00;98785.59;3980824;88;21091;-85
2022/07/31 23:52:49;;;;;;;15.70;7.80;;;;;;;15.88;100.00;98782.49;3948870;87;21118;-84
2022/07/31 23:58:50;;;;;;;8.48;7.15;;;;;;;15.86;100.00;98792.57;4006321;87;21575;-85
